createdAt,value
2023-05-18T00:01:20.187Z,100410.66
2023-05-18T00:03:47.807Z,100406.72
2023-05-18T00:06:17.759Z,100410.33
2023-05-18T00:08:45.896Z,100409.43
2023-05-18T00:11:13.980Z,100407.64
2023-05-18T00:13:43.148Z,100406.39
2023-05-18T00:16:13.908Z,100405.94
2023-05-18T00:18:42.310Z,100405.58
2023-05-18T00:21:11.564Z,100405.30
2023-05-18T00:23:41.463Z,100403.84
2023-05-18T00:26:10.311Z,100399.46
2023-05-18T00:28:39.685Z,100390.75
2023-05-18T00:31:09.900Z,100390.38
2023-05-18T00:33:38.043Z,100386.99
2023-05-18T00:36:06.778Z,100385.59
2023-05-18T00:38:35.057Z,100383.64
2023-05-18T00:41:03.106Z,100380.64
2023-05-18T00:43:32.154Z,100380.97
2023-05-18T00:46:00.517Z,100378.22
2023-05-18T00:48:29.219Z,100381.55
2023-05-18T00:50:58.052Z,100379.48
2023-05-18T00:53:26.628Z,100376.15
2023-05-18T00:55:56.323Z,100375.17
2023-05-18T00:58:28.411Z,100376.39
2023-05-18T01:00:58.460Z,100375.08
2023-05-18T01:03:30.431Z,100376.64
2023-05-18T01:05:59.392Z,100379.23
2023-05-18T01:08:29.140Z,100378.93
2023-05-18T01:11:08.385Z,100381.54
2023-05-18T01:14:10.178Z,100376.83
2023-05-18T01:17:33.763Z,100379.30
2023-05-18T01:20:26.317Z,100377.58
2023-05-18T01:24:00.596Z,100382.07
2023-05-18T01:26:37.892Z,100386.27
2023-05-18T01:29:10.010Z,100383.13
2023-05-18T01:31:40.987Z,100386.42
2023-05-18T01:34:09.654Z,100388.14
2023-05-18T01:36:37.804Z,100386.31
2023-05-18T01:39:06.258Z,100386.98
2023-05-18T01:41:39.483Z,100387.98
2023-05-18T01:44:18.352Z,100386.60
2023-05-18T01:47:02.536Z,100389.70
2023-05-18T01:49:38.872Z,100390.73
2023-05-18T01:52:11.826Z,100392.17
2023-05-18T01:54:49.058Z,100393.92
2023-05-18T01:57:22.415Z,100394.52
2023-05-18T01:59:51.603Z,100398.04
2023-05-18T02:02:20.639Z,100398.15
2023-05-18T02:04:49.879Z,100399.23
2023-05-18T02:07:17.827Z,100401.33
2023-05-18T02:09:46.010Z,100399.27
2023-05-18T02:12:14.268Z,100402.27
2023-05-18T02:14:44.803Z,100404.45
2023-05-18T02:17:13.197Z,100406.42
2023-05-18T02:19:43.944Z,100407.77
2023-05-18T02:22:13.252Z,100408.72
2023-05-18T02:24:42.968Z,100409.33
2023-05-18T02:27:11.553Z,100406.03
2023-05-18T02:29:40.321Z,100406.46
2023-05-18T02:32:11.456Z,100405.45
2023-05-18T02:34:42.516Z,100408.65
2023-05-18T02:37:10.723Z,100417.09
2023-05-18T02:39:39.718Z,100417.11
2023-05-18T02:42:08.734Z,100422.76
2023-05-18T02:44:37.286Z,100423.81
2023-05-18T02:47:06.565Z,100426.59
2023-05-18T02:49:35.844Z,100422.98
2023-05-18T02:52:06.736Z,100422.64
2023-05-18T02:54:36.105Z,100423.46
2023-05-18T02:57:06.065Z,100424.16
2023-05-18T02:59:44.281Z,100425.45
2023-05-18T03:02:17.148Z,100428.05
2023-05-18T03:04:57.672Z,100425.75
2023-05-18T03:07:27.888Z,100429.67
2023-05-18T03:09:56.868Z,100425.88
2023-05-18T03:12:25.583Z,100424.05
2023-05-18T03:14:54.536Z,100423.40
2023-05-18T03:17:23.074Z,100419.83
2023-05-18T03:19:51.703Z,100422.70
2023-05-18T03:22:24.483Z,100426.20
2023-05-18T03:24:56.110Z,100427.04
2023-05-18T03:27:28.275Z,100431.16
2023-05-18T03:29:58.188Z,100433.98
2023-05-18T03:32:28.675Z,100431.73
2023-05-18T03:34:57.664Z,100431.80
2023-05-18T03:37:27.118Z,100434.98
2023-05-18T03:40:08.794Z,100439.59
2023-05-18T03:42:37.497Z,100438.16
2023-05-18T03:45:08.428Z,100443.30
2023-05-18T03:47:39.249Z,100443.93
2023-05-18T03:50:09.648Z,100445.45
2023-05-18T03:52:41.901Z,100444.95
2023-05-18T03:55:12.096Z,100445.11
2023-05-18T03:57:40.541Z,100443.09
2023-05-18T04:00:12.394Z,100446.41
2023-05-18T04:02:44.868Z,100445.79
2023-05-18T04:05:14.056Z,100448.91
2023-05-18T04:07:46.820Z,100449.08
2023-05-18T04:10:14.983Z,100451.39
2023-05-18T04:12:44.034Z,100450.15
2023-05-18T04:15:15.111Z,100453.35
2023-05-18T04:17:46.024Z,100453.05
2023-05-18T04:20:15.086Z,100453.19
2023-05-18T04:22:46.748Z,100454.02
2023-05-18T04:25:15.876Z,100453.08
2023-05-18T04:27:51.187Z,100455.15
2023-05-18T04:30:23.568Z,100454.06
2023-05-18T04:32:54.864Z,100457.13
2023-05-18T04:35:23.956Z,100458.73
2023-05-18T04:37:54.774Z,100461.13
2023-05-18T04:40:23.287Z,100463.21
2023-05-18T04:42:51.459Z,100464.64
2023-05-18T04:45:26.685Z,100468.80
2023-05-18T04:47:58.846Z,100465.55
2023-05-18T04:50:28.310Z,100467.50
2023-05-18T04:52:58.704Z,100466.73
2023-05-18T04:55:29.311Z,100472.00
2023-05-18T04:58:03.258Z,100468.20
2023-05-18T05:00:31.462Z,100468.36
2023-05-18T05:03:00.748Z,100463.03
2023-05-18T05:05:30.286Z,100462.19
2023-05-18T05:07:59.174Z,100464.37
2023-05-18T05:10:30.715Z,100461.86
2023-05-18T05:13:08.504Z,100467.05
2023-05-18T05:15:37.209Z,100472.29
2023-05-18T05:18:05.827Z,100472.45
2023-05-18T05:20:37.115Z,100479.34
2023-05-18T05:23:05.784Z,100471.59
2023-05-18T05:25:37.300Z,100465.98
2023-05-18T05:28:07.555Z,100466.88
2023-05-18T05:30:37.865Z,100460.02
2023-05-18T05:33:05.970Z,100455.58
2023-05-18T05:35:36.929Z,100447.63
2023-05-18T05:38:10.112Z,100442.80
2023-05-18T05:40:38.960Z,100438.44
2023-05-18T05:43:09.431Z,100438.86
2023-05-18T05:45:39.558Z,100437.67
2023-05-18T05:48:12.627Z,100437.67
2023-05-18T05:50:42.197Z,100435.10
2023-05-18T05:53:11.556Z,100431.30
2023-05-18T05:55:43.833Z,100432.52
2023-05-18T05:58:15.151Z,100434.17
2023-05-18T06:00:47.404Z,100430.45
2023-05-18T06:03:16.529Z,100434.95
2023-05-18T06:05:46.803Z,100437.66
2023-05-18T06:08:17.889Z,100443.80
2023-05-18T06:10:49.974Z,100440.19
2023-05-18T06:13:19.160Z,100438.63
2023-05-18T06:15:54.011Z,100442.66
2023-05-18T06:18:23.439Z,100436.88
2023-05-18T06:20:53.265Z,100438.11
2023-05-18T06:23:24.913Z,100442.42
2023-05-18T06:26:07.042Z,100440.29
2023-05-18T06:28:38.831Z,100440.74
2023-05-18T06:31:19.068Z,100441.22
2023-05-18T06:33:51.403Z,100441.42
2023-05-18T06:36:19.604Z,100441.89
2023-05-18T06:38:48.628Z,100439.27
2023-05-18T06:41:18.079Z,100434.50
2023-05-18T06:43:47.579Z,100430.95
2023-05-18T06:46:29.657Z,100433.10
2023-05-18T06:49:01.441Z,100431.48
2023-05-18T06:51:31.427Z,100429.94
2023-05-18T06:53:59.780Z,100431.45
2023-05-18T06:56:28.304Z,100431.83
2023-05-18T06:58:58.957Z,100428.30
2023-05-18T07:01:29.758Z,100431.29
2023-05-18T07:04:01.373Z,100427.95
2023-05-18T07:06:30.480Z,100427.39
2023-05-18T07:08:58.896Z,100423.42
2023-05-18T07:11:29.530Z,100427.18
2023-05-18T07:13:58.001Z,100429.51
2023-05-18T07:16:30.481Z,100432.50
2023-05-18T07:19:02.573Z,100436.59
2023-05-18T07:21:31.576Z,100435.02
2023-05-18T07:24:00.003Z,100437.02
2023-05-18T07:26:29.863Z,100438.80
2023-05-18T07:28:58.033Z,100437.18
2023-05-18T07:31:27.416Z,100437.42
2023-05-18T07:33:55.101Z,100436.25
2023-05-18T07:36:24.915Z,100435.70
2023-05-18T07:38:55.392Z,100436.73
2023-05-18T07:41:23.368Z,100435.71
2023-05-18T07:43:52.373Z,100431.38
2023-05-18T07:46:22.760Z,100429.87
2023-05-18T07:48:51.724Z,100429.08
2023-05-18T07:51:20.424Z,100433.93
2023-05-18T07:53:50.838Z,100433.23
2023-05-18T07:56:20.530Z,100437.63
2023-05-18T07:58:49.053Z,100433.91
2023-05-18T08:01:17.369Z,100429.85
2023-05-18T08:03:45.426Z,100431.95
2023-05-18T08:06:13.527Z,100427.89
2023-05-18T08:08:41.867Z,100427.07
2023-05-18T08:11:10.671Z,100423.00
2023-05-18T08:13:38.709Z,100419.30
2023-05-18T08:16:12.395Z,100418.02
2023-05-18T08:19:47.620Z,100420.05
2023-05-18T08:22:16.788Z,100412.17
2023-05-18T08:24:45.955Z,100414.63
2023-05-18T08:27:13.750Z,100416.11
2023-05-18T08:29:42.158Z,100414.95
2023-05-18T08:32:10.984Z,100413.80
2023-05-18T08:34:39.767Z,100410.12
2023-05-18T08:37:08.648Z,100407.90
2023-05-18T08:39:37.540Z,100404.40
2023-05-18T08:42:21.577Z,100403.77
2023-05-18T08:45:02.734Z,100404.36
2023-05-18T08:47:31.645Z,100399.66
2023-05-18T08:50:02.738Z,100403.69
2023-05-18T08:52:37.924Z,100398.64
2023-05-18T08:55:12.540Z,100400.17
2023-05-18T08:57:44.293Z,100399.91
2023-05-18T09:00:14.131Z,100393.02
2023-05-18T09:02:44.163Z,100398.60
2023-05-18T09:05:13.556Z,100391.79
2023-05-18T09:07:43.993Z,100395.20
2023-05-18T09:10:12.390Z,100393.82
2023-05-18T09:12:43.677Z,100387.42
2023-05-18T09:15:14.994Z,100391.76
2023-05-18T09:17:43.457Z,100394.70
2023-05-18T09:20:15.584Z,100394.23
2023-05-18T09:22:44.056Z,100389.70
2023-05-18T09:25:12.062Z,100380.96
2023-05-18T09:27:40.754Z,100385.14
2023-05-18T09:30:12.048Z,100377.40
2023-05-18T09:32:41.017Z,100384.43
2023-05-18T09:35:12.547Z,100383.73
2023-05-18T09:37:44.304Z,100377.18
2023-05-18T09:40:13.343Z,100371.95
2023-05-18T09:42:44.465Z,100372.67
2023-05-18T09:45:29.133Z,100368.61
2023-05-18T09:47:57.878Z,100371.98
2023-05-18T09:50:27.525Z,100368.96
2023-05-18T09:52:57.700Z,100365.33
2023-05-18T09:55:26.119Z,100365.70
2023-05-18T09:57:57.125Z,100367.52
2023-05-18T10:00:27.444Z,100371.48
2023-05-18T10:02:56.899Z,100359.02
2023-05-18T10:05:36.011Z,100364.85
2023-05-18T10:08:05.797Z,100359.11
2023-05-18T10:10:39.005Z,100364.73
2023-05-18T10:13:06.799Z,100363.45
2023-05-18T10:15:35.994Z,100357.45
2023-05-18T10:18:06.598Z,100352.36
2023-05-18T10:20:34.962Z,100347.78
2023-05-18T10:23:05.990Z,100351.11
2023-05-18T10:25:35.002Z,100346.30
2023-05-18T10:28:07.232Z,100335.85
2023-05-18T10:30:35.562Z,100337.56
2023-05-18T10:33:11.352Z,100332.02
2023-05-18T10:36:43.873Z,100327.48
2023-05-18T10:39:12.303Z,100327.52
2023-05-18T10:41:41.268Z,100331.44
2023-05-18T10:44:10.558Z,100331.50
2023-05-18T10:46:39.308Z,100323.16
2023-05-18T10:49:14.111Z,100322.55
2023-05-18T10:51:46.467Z,100331.61
2023-05-18T10:54:15.741Z,100335.14
2023-05-18T10:56:47.941Z,100339.08
2023-05-18T10:59:16.690Z,100330.34
2023-05-18T11:01:46.670Z,100329.18
2023-05-18T11:04:15.400Z,100319.18
2023-05-18T11:06:43.281Z,100314.36
2023-05-18T11:09:23.470Z,100319.14
2023-05-18T11:11:58.956Z,100320.52
2023-05-18T11:14:32.779Z,100323.93
2023-05-18T11:17:51.924Z,100317.45
2023-05-18T11:20:25.791Z,100302.40
2023-05-18T11:23:15.664Z,100297.45
2023-05-18T11:25:45.543Z,100304.05
2023-05-18T11:28:14.683Z,100302.70
2023-05-18T11:30:49.386Z,100305.53
2023-05-18T11:33:23.859Z,100305.23
2023-05-18T11:36:13.846Z,100314.20
2023-05-18T11:39:07.910Z,100313.20
2023-05-18T11:41:44.755Z,100310.14
2023-05-18T11:44:18.253Z,100299.37
2023-05-18T11:47:06.062Z,100296.23
2023-05-18T11:50:47.882Z,100293.81
2023-05-18T11:53:25.359Z,100290.55
2023-05-18T11:56:01.268Z,100283.48
2023-05-18T11:58:31.709Z,100287.32
2023-05-18T12:01:01.650Z,100283.23
2023-05-18T12:03:31.831Z,100269.91
2023-05-18T12:06:00.967Z,100271.90
2023-05-18T12:08:29.870Z,100282.84
2023-05-18T12:10:58.561Z,100277.08
2023-05-18T12:13:27.903Z,100271.21
2023-05-18T12:15:59.168Z,100275.50
2023-05-18T12:18:29.977Z,100274.30
2023-05-18T12:20:58.342Z,100281.62
2023-05-18T12:23:40.480Z,100280.61
2023-05-18T12:26:08.652Z,100276.16
2023-05-18T12:28:37.311Z,100279.80
2023-05-18T12:31:08.887Z,100275.38
2023-05-18T12:33:37.825Z,100270.09
2023-05-18T12:36:15.854Z,100268.48
2023-05-18T12:38:48.401Z,100262.95
2023-05-18T12:41:28.594Z,100265.75
2023-05-18T12:43:56.402Z,100268.01
2023-05-18T12:46:25.756Z,100278.33
2023-05-18T12:49:01.505Z,100276.11
2023-05-18T12:51:35.251Z,100280.14
2023-05-18T12:54:05.512Z,100280.51
2023-05-18T12:57:02.099Z,100280.44
2023-05-18T12:59:31.228Z,100284.60
2023-05-18T13:01:59.816Z,100279.77
2023-05-18T13:04:35.602Z,100273.11
2023-05-18T13:07:03.360Z,100276.17
2023-05-18T13:09:31.513Z,100277.36
2023-05-18T13:12:07.874Z,100270.98
2023-05-18T13:14:38.247Z,100274.59
2023-05-18T13:17:07.087Z,100262.80
2023-05-18T13:19:36.806Z,100270.36
2023-05-18T13:22:05.524Z,100273.80
2023-05-18T13:24:34.203Z,100277.54
2023-05-18T13:27:03.097Z,100279.15
2023-05-18T13:29:31.225Z,100278.34
2023-05-18T13:31:59.417Z,100278.43
2023-05-18T13:34:27.953Z,100277.47
2023-05-18T13:36:57.382Z,100280.73
2023-05-18T13:39:25.718Z,100281.41
2023-05-18T13:41:54.605Z,100278.93
2023-05-18T13:44:22.700Z,100276.06
2023-05-18T13:46:50.711Z,100278.14
2023-05-18T13:49:18.661Z,100274.67
2023-05-18T13:51:46.418Z,100273.47
2023-05-18T13:54:15.743Z,100275.15
2023-05-18T13:56:43.660Z,100273.64
2023-05-18T13:59:11.773Z,100272.24
2023-05-18T14:01:42.609Z,100273.54
2023-05-18T14:04:10.946Z,100274.59
2023-05-18T14:06:40.887Z,100274.42
2023-05-18T14:09:08.756Z,100267.75
2023-05-18T14:11:38.608Z,100266.92
2023-05-18T14:14:06.874Z,100265.55
2023-05-18T14:16:34.887Z,100268.27
2023-05-18T14:19:03.113Z,100261.04
2023-05-18T14:21:32.012Z,100256.00
2023-05-18T14:24:03.979Z,100260.13
2023-05-18T14:26:33.585Z,100259.15
2023-05-18T14:29:02.395Z,100256.70
2023-05-18T14:31:32.248Z,100257.46
2023-05-18T14:34:00.555Z,100258.64
2023-05-18T14:36:28.684Z,100258.85
2023-05-18T14:38:56.474Z,100260.17
2023-05-18T14:41:25.459Z,100261.14
2023-05-18T14:43:53.989Z,100261.29
2023-05-18T14:46:22.511Z,100267.45
2023-05-18T14:48:51.207Z,100269.22
2023-05-18T14:51:19.068Z,100266.88
2023-05-18T14:53:47.566Z,100262.34
2023-05-18T14:56:16.451Z,100263.89
2023-05-18T14:58:44.422Z,100256.31
2023-05-18T15:01:13.132Z,100251.00
2023-05-18T15:03:41.451Z,100252.86
2023-05-18T15:06:11.044Z,100252.31
2023-05-18T15:08:38.908Z,100251.46
2023-05-18T15:11:08.044Z,100244.31
2023-05-18T15:13:38.593Z,100248.00
2023-05-18T15:16:06.957Z,100250.67
2023-05-18T15:18:37.278Z,100245.77
2023-05-18T15:21:05.743Z,100247.18
2023-05-18T15:23:33.566Z,100241.08
2023-05-18T15:26:01.651Z,100242.33
2023-05-18T15:28:30.130Z,100244.42
2023-05-18T15:30:59.512Z,100242.30
2023-05-18T15:33:28.034Z,100239.89
2023-05-18T15:35:56.870Z,100241.64
2023-05-18T15:38:24.712Z,100243.23
2023-05-18T15:40:53.652Z,100244.69
2023-05-18T15:43:24.198Z,100250.13
2023-05-18T15:45:52.262Z,100254.35
2023-05-18T15:48:20.566Z,100254.52
2023-05-18T15:50:48.837Z,100252.02
2023-05-18T15:53:31.330Z,100257.61
2023-05-18T15:55:59.821Z,100255.99
2023-05-18T15:58:28.477Z,100254.61
2023-05-18T16:00:57.468Z,100256.15
2023-05-18T16:03:25.868Z,100265.26
2023-05-18T16:05:53.475Z,100264.90
2023-05-18T16:08:21.671Z,100263.60
2023-05-18T16:10:50.555Z,100263.98
2023-05-18T16:13:18.777Z,100265.02
2023-05-18T16:15:47.256Z,100261.28
2023-05-18T16:18:15.779Z,100264.70
2023-05-18T16:20:45.494Z,100267.80
2023-05-18T16:23:15.059Z,100270.75
2023-05-18T16:25:43.077Z,100270.29
2023-05-18T16:28:10.976Z,100273.63
2023-05-18T16:30:39.921Z,100272.98
2023-05-18T16:33:08.270Z,100277.69
2023-05-18T16:35:38.384Z,100282.90
2023-05-18T16:38:06.729Z,100285.59
2023-05-18T16:40:34.915Z,100283.60
2023-05-18T16:43:02.990Z,100291.57
2023-05-18T16:45:30.691Z,100291.54
2023-05-18T16:48:00.800Z,100294.11
2023-05-18T16:50:30.349Z,100294.90
2023-05-18T16:52:59.299Z,100296.93
2023-05-18T16:55:27.334Z,100299.26
2023-05-18T16:57:55.663Z,100297.05
2023-05-18T17:00:23.885Z,100297.77
2023-05-18T17:02:52.945Z,100295.94
2023-05-18T17:05:24.090Z,100296.60
2023-05-18T17:07:52.945Z,100300.65
2023-05-18T17:10:20.801Z,100302.05
2023-05-18T17:12:49.056Z,100306.64
2023-05-18T17:15:16.785Z,100307.45
2023-05-18T17:17:45.551Z,100307.21
2023-05-18T17:20:13.835Z,100308.02
2023-05-18T17:22:41.946Z,100308.27
2023-05-18T17:25:10.016Z,100314.30
2023-05-18T17:27:37.670Z,100316.25
2023-05-18T17:30:07.124Z,100316.62
2023-05-18T17:32:36.290Z,100314.98
2023-05-18T17:35:13.937Z,100314.56
2023-05-18T17:37:49.400Z,100321.05
2023-05-18T17:40:18.011Z,100321.17
2023-05-18T17:42:46.624Z,100325.63
2023-05-18T17:45:16.735Z,100328.29
2023-05-18T17:47:46.381Z,100333.23
2023-05-18T17:50:14.932Z,100335.63
2023-05-18T17:52:44.137Z,100338.92
2023-05-18T17:55:13.231Z,100335.17
2023-05-18T17:57:45.389Z,100338.21
2023-05-18T18:00:14.905Z,100343.35
2023-05-18T18:02:43.049Z,100340.95
2023-05-18T18:05:10.821Z,100345.56
2023-05-18T18:07:39.849Z,100350.86
2023-05-18T18:10:09.215Z,100351.14
2023-05-18T18:12:36.864Z,100351.49
2023-05-18T18:15:06.043Z,100354.45
2023-05-18T18:17:34.419Z,100357.38
2023-05-18T18:20:02.551Z,100360.27
2023-05-18T18:22:31.470Z,100361.98
2023-05-18T18:25:00.057Z,100364.61
2023-05-18T18:27:27.793Z,100366.88
2023-05-18T18:29:57.260Z,100366.35
2023-05-18T18:32:26.174Z,100369.26
2023-05-18T18:34:54.003Z,100369.83
2023-05-18T18:37:22.747Z,100366.67
2023-05-18T18:39:50.396Z,100362.48
2023-05-18T18:42:21.287Z,100363.67
2023-05-18T18:44:53.033Z,100366.60
2023-05-18T18:47:21.713Z,100366.77
2023-05-18T18:49:49.395Z,100363.10
2023-05-18T18:52:17.688Z,100369.40
2023-05-18T18:54:45.867Z,100368.41
2023-05-18T18:57:13.491Z,100366.38
2023-05-18T18:59:42.686Z,100365.78
2023-05-18T19:02:10.866Z,100370.05
2023-05-18T19:04:38.765Z,100368.31
2023-05-18T19:07:07.292Z,100374.64
2023-05-18T19:09:36.394Z,100370.79
2023-05-18T19:12:04.345Z,100369.21
2023-05-18T19:14:32.639Z,100371.27
2023-05-18T19:17:00.604Z,100371.86
2023-05-18T19:19:29.875Z,100372.70
2023-05-18T19:21:57.806Z,100373.03
2023-05-18T19:24:25.920Z,100372.73
2023-05-18T19:26:54.343Z,100373.04
2023-05-18T19:29:25.103Z,100370.45
2023-05-18T19:31:55.368Z,100371.12
2023-05-18T19:34:23.782Z,100368.98
2023-05-18T19:36:52.032Z,100371.00
2023-05-18T19:39:19.832Z,100371.36
2023-05-18T19:41:48.188Z,100372.27
2023-05-18T19:44:16.829Z,100371.08
2023-05-18T19:46:45.012Z,100365.41
2023-05-18T19:49:12.733Z,100367.23
2023-05-18T19:51:40.930Z,100366.63
2023-05-18T19:54:08.928Z,100367.73
2023-05-18T19:56:36.684Z,100367.05
2023-05-18T19:59:04.526Z,100367.29
2023-05-18T20:01:33.563Z,100365.55
2023-05-18T20:04:01.394Z,100368.59
2023-05-18T20:06:31.838Z,100373.00
2023-05-18T20:09:00.937Z,100372.92
2023-05-18T20:11:28.858Z,100370.87
2023-05-18T20:13:56.584Z,100370.94
2023-05-18T20:16:26.939Z,100375.92
2023-05-18T20:18:54.589Z,100378.40
2023-05-18T20:21:22.807Z,100378.05
2023-05-18T20:23:50.745Z,100380.00
2023-05-18T20:26:18.916Z,100380.67
2023-05-18T20:28:46.644Z,100379.73
2023-05-18T20:31:14.639Z,100380.58
2023-05-18T20:33:44.551Z,100384.86
2023-05-18T20:36:14.447Z,100382.67
2023-05-18T20:38:44.435Z,100380.48
2023-05-18T20:41:12.491Z,100378.51
2023-05-18T20:43:40.644Z,100380.39
2023-05-18T20:46:09.929Z,100376.85
2023-05-18T20:48:39.411Z,100381.52
2023-05-18T20:51:08.784Z,100380.42
2023-05-18T20:53:36.844Z,100378.66
2023-05-18T20:56:05.640Z,100383.98
2023-05-18T20:58:36.530Z,100379.05
2023-05-18T21:01:07.262Z,100376.98
2023-05-18T21:03:35.097Z,100379.30
2023-05-18T21:06:05.462Z,100374.95
2023-05-18T21:08:33.015Z,100380.26
2023-05-18T21:11:02.345Z,100380.25
2023-05-18T21:13:29.903Z,100377.47
2023-05-18T21:15:58.809Z,100375.55
2023-05-18T21:18:26.556Z,100374.25
2023-05-18T21:20:58.041Z,100372.56
2023-05-18T21:23:26.330Z,100371.39
2023-05-18T21:25:54.242Z,100373.61
2023-05-18T21:28:22.170Z,100371.88
2023-05-18T21:30:51.750Z,100372.33
2023-05-18T21:33:20.211Z,100368.35
2023-05-18T21:35:48.396Z,100365.33
2023-05-18T21:38:17.362Z,100364.23
2023-05-18T21:40:47.807Z,100363.67
2023-05-18T21:43:15.554Z,100369.73
2023-05-18T21:45:44.324Z,100367.95
2023-05-18T21:48:13.199Z,100369.08
2023-05-18T21:50:41.383Z,100367.89
2023-05-18T21:53:09.360Z,100368.52
2023-05-18T21:55:37.129Z,100369.16
2023-05-18T21:58:05.275Z,100370.95
2023-05-18T22:00:34.941Z,100367.80
2023-05-18T22:03:04.736Z,100364.70
2023-05-18T22:05:33.074Z,100368.40
2023-05-18T22:08:05.928Z,100364.15
2023-05-18T22:10:34.094Z,100361.57
2023-05-18T22:13:02.509Z,100361.67
2023-05-18T22:15:30.251Z,100362.78
2023-05-18T22:17:57.937Z,100365.45
2023-05-18T22:20:26.649Z,100364.52
2023-05-18T22:22:55.094Z,100364.94
2023-05-18T22:25:25.085Z,100370.98
2023-05-18T22:27:53.771Z,100372.90
2023-05-18T22:30:27.890Z,100370.50
2023-05-18T22:32:58.188Z,100373.52
2023-05-18T22:35:26.572Z,100372.83
2023-05-18T22:37:54.056Z,100371.52
2023-05-18T22:40:22.563Z,100371.91
2023-05-18T22:42:50.582Z,100372.77
2023-05-18T22:45:18.638Z,100372.23
2023-05-18T22:47:46.391Z,100370.04
2023-05-18T22:50:14.253Z,100372.92
2023-05-18T22:52:42.082Z,100367.63
2023-05-18T22:55:13.371Z,100366.96
2023-05-18T22:57:42.122Z,100368.58
2023-05-18T23:00:14.323Z,100367.83
2023-05-18T23:02:42.803Z,100364.20
2023-05-18T23:05:10.702Z,100359.20
2023-05-18T23:07:39.268Z,100356.96
2023-05-18T23:10:09.459Z,100355.05
2023-05-18T23:12:38.377Z,100350.10
2023-05-18T23:15:07.289Z,100348.09
2023-05-18T23:17:39.059Z,100346.27
2023-05-18T23:20:07.800Z,100347.73
2023-05-18T23:22:35.553Z,100346.17
2023-05-18T23:25:04.924Z,100342.65
2023-05-18T23:27:33.491Z,100341.25
2023-05-18T23:30:01.846Z,100339.70
2023-05-18T23:32:29.184Z,100342.69
2023-05-18T23:34:59.713Z,100341.73
2023-05-18T23:37:29.609Z,100341.35
2023-05-18T23:40:00.956Z,100338.20
2023-05-18T23:42:29.417Z,100336.73
2023-05-18T23:44:57.681Z,100335.55
2023-05-18T23:47:26.301Z,100335.55
2023-05-18T23:49:55.536Z,100335.17
2023-05-18T23:52:28.055Z,100332.86
2023-05-18T23:54:58.766Z,100336.19
2023-05-18T23:57:27.078Z,100339.27
2023-05-18T23:59:56.353Z,100340.00
